Time;durP1;ratioP1;P1;durP2;ratioP2;P2;SDS_P1;SDS_P2;PMS_P1;PMS_P2;Temp;Humidity;BMP_temperature;BMP_pressure;BME280_temperature;BME280_humidity;BME280_pressure;Samples;Min_cycle;Max_cycle;Signal;HPM_P1;HPM_P2
2022/09/29 00:02:16;;;;;;;2.90;1.50;;;5.50;99.90;;;;;;5065791;28;20488;-70
2022/09/29 00:04:42;;;;;;;3.60;1.90;;;5.50;99.90;;;;;;5035251;28;20048;-70
2022/09/29 00:07:07;;;;;;;4.27;1.80;;;5.50;99.90;;;;;;5055775;28;20072;-70
2022/09/29 00:09:33;;;;;;;3.83;1.70;;;5.50;99.90;;;;;;5071108;28;20178;-70
2022/09/29 00:11:59;;;;;;;2.78;1.65;;;5.50;99.90;;;;;;5030383;28;20048;-70
2022/09/29 00:14:25;;;;;;;2.93;1.63;;;5.40;99.90;;;;;;5067759;28;20033;-70
2022/09/29 00:16:52;;;;;;;2.77;1.40;;;5.40;99.90;;;;;;5039683;28;20110;-70
2022/09/29 00:19:18;;;;;;;2.42;1.45;;;5.40;99.90;;;;;;5059231;28;20126;-70
2022/09/29 00:21:44;;;;;;;1.67;1.10;;;5.40;99.90;;;;;;5044927;28;20037;-70
2022/09/29 00:24:10;;;;;;;2.63;1.38;;;5.40;99.90;;;;;;5062837;28;20033;-70
2022/09/29 00:26:36;;;;;;;3.78;1.42;;;5.40;99.90;;;;;;5040160;28;20060;-70
2022/09/29 00:29:03;;;;;;;2.67;1.70;;;5.30;99.90;;;;;;5036255;28;20037;-70
2022/09/29 00:31:31;;;;;;;2.58;1.80;;;5.30;99.90;;;;;;5055435;28;20400;-70
2022/09/29 00:33:57;;;;;;;2.60;1.95;;;5.30;99.90;;;;;;5059542;28;20044;-70
2022/09/29 00:36:24;;;;;;;2.50;1.80;;;5.30;99.90;;;;;;5066171;28;20456;-70
2022/09/29 00:38:53;;;;;;;3.00;2.10;;;5.30;99.90;;;;;;5056620;28;20044;-70
2022/09/29 00:41:23;;;;;;;2.53;2.08;;;5.30;99.90;;;;;;5071013;28;20047;-70
2022/09/29 00:43:52;;;;;;;2.88;1.95;;;5.30;99.90;;;;;;5084632;28;20060;-70
2022/09/29 00:46:57;;;;;;;3.72;2.17;;;5.30;99.90;;;;;;5073318;28;20406;-70
2022/09/29 00:49:31;;;;;;;6.18;2.65;;;5.30;99.90;;;;;;5056931;28;20288;-70
2022/09/29 00:52:00;;;;;;;2.63;1.70;;;5.20;99.90;;;;;;5061457;28;20041;-70
2022/09/29 00:54:31;;;;;;;3.75;1.65;;;5.20;99.90;;;;;;5054887;28;20093;-70
2022/09/29 00:56:59;;;;;;;3.63;2.00;;;5.10;99.90;;;;;;5055784;28;20335;-70
2022/09/29 00:59:42;;;;;;;2.85;2.00;;;5.10;99.90;;;;;;5066851;28;20040;-70
2022/09/29 01:02:12;;;;;;;3.42;2.20;;;5.10;99.90;;;;;;5074867;28;20071;-70
2022/09/29 01:04:39;;;;;;;3.75;2.17;;;5.10;99.90;;;;;;5065912;28;20128;-70
2022/09/29 01:07:07;;;;;;;3.10;2.38;;;5.10;99.90;;;;;;5061298;28;20457;-70
2022/09/29 01:09:37;;;;;;;2.88;2.10;;;5.00;99.90;;;;;;5090314;28;20404;-70
2022/09/29 01:12:03;;;;;;;3.60;2.65;;;5.00;99.90;;;;;;5069741;28;20035;-70
2022/09/29 01:14:31;;;;;;;5.22;2.67;;;5.00;99.90;;;;;;5046528;28;20037;-70
2022/09/29 01:16:58;;;;;;;5.10;3.10;;;5.00;99.90;;;;;;5066815;28;20090;-70
2022/09/29 01:19:42;;;;;;;3.78;2.42;;;4.90;99.90;;;;;;5050515;28;20100;-70
2022/09/29 01:22:34;;;;;;;5.60;3.50;;;4.90;99.90;;;;;;5056543;28;20044;-70
2022/09/29 01:25:15;;;;;;;4.75;3.30;;;4.90;99.90;;;;;;5071696;28;20037;-69
2022/09/29 01:28:02;;;;;;;5.32;2.92;;;4.90;99.90;;;;;;5061487;28;20056;-70
2022/09/29 01:30:52;;;;;;;4.28;2.78;;;4.90;99.90;;;;;;5075096;28;20139;-70
2022/09/29 01:33:47;;;;;;;6.85;3.63;;;4.90;99.90;;;;;;5073442;28;20048;-71
2022/09/29 01:37:01;;;;;;;4.97;3.70;;;4.90;99.90;;;;;;5054723;28;20084;-71
2022/09/29 01:39:31;;;;;;;6.57;3.30;;;4.90;99.90;;;;;;5082780;28;20413;-71
2022/09/29 01:42:29;;;;;;;5.93;3.50;;;4.90;99.90;;;;;;5043771;28;20040;-71
2022/09/29 01:45:16;;;;;;;6.20;3.67;;;4.90;99.90;;;;;;5057701;28;20506;-71
2022/09/29 01:47:49;;;;;;;6.35;3.58;;;4.90;99.90;;;;;;5056176;28;20048;-71
2022/09/29 01:50:22;;;;;;;5.50;3.67;;;4.90;99.90;;;;;;5072435;28;20119;-71
2022/09/29 01:52:53;;;;;;;6.40;4.10;;;4.80;99.90;;;;;;5073049;28;20107;-71
2022/09/29 01:55:24;;;;;;;10.13;4.53;;;4.90;99.90;;;;;;5074119;28;20071;-71
2022/09/29 01:58:03;;;;;;;7.70;4.40;;;4.90;99.90;;;;;;5071974;28;20363;-71
2022/09/29 02:00:33;;;;;;;5.60;4.00;;;4.90;99.90;;;;;;5054956;28;20037;-71
2022/09/29 02:03:13;;;;;;;6.07;3.72;;;4.90;99.90;;;;;;5068750;28;20059;-71
2022/09/29 02:05:51;;;;;;;8.25;3.92;;;4.90;99.90;;;;;;5071596;28;20069;-71
2022/09/29 02:08:42;;;;;;;5.18;3.28;;;4.90;99.90;;;;;;5072112;28;20041;-71
2022/09/29 02:11:13;;;;;;;5.45;3.25;;;4.90;99.90;;;;;;5056611;28;20045;-71
2022/09/29 02:14:01;;;;;;;4.80;3.20;;;4.90;99.90;;;;;;5073989;28;20106;-71
2022/09/29 02:16:30;;;;;;;4.85;3.10;;;4.90;99.90;;;;;;5045972;28;20413;-71
2022/09/29 02:19:09;;;;;;;4.07;3.10;;;4.90;99.90;;;;;;5054477;28;20042;-71
2022/09/29 02:21:35;;;;;;;5.10;3.13;;;4.80;99.90;;;;;;5055093;28;20055;-71
2022/09/29 02:24:01;;;;;;;4.53;3.53;;;4.80;99.90;;;;;;5059378;28;20512;-71
2022/09/29 02:26:33;;;;;;;5.47;3.80;;;4.70;99.90;;;;;;5046272;28;20060;-71
2022/09/29 02:29:01;;;;;;;6.38;4.15;;;4.70;99.90;;;;;;5071417;28;20052;-71
2022/09/29 02:31:28;;;;;;;6.65;4.28;;;4.70;99.90;;;;;;5054791;28;20044;-72
2022/09/29 02:33:53;;;;;;;6.47;4.32;;;4.70;99.90;;;;;;5055037;28;20040;-70
2022/09/29 02:37:01;;;;;;;8.43;4.77;;;4.80;99.90;;;;;;5032388;28;20507;-70
2022/09/29 02:39:29;;;;;;;8.15;4.68;;;4.80;99.90;;;;;;5014548;28;20040;-70
2022/09/29 02:42:34;;;;;;;29.60;5.38;;;4.80;99.90;;;;;;5060953;28;20604;-70
2022/09/29 02:45:26;;;;;;;13.10;4.30;;;4.80;99.90;;;;;;5062853;28;20529;-70
2022/09/29 02:48:07;;;;;;;8.23;3.80;;;4.80;99.90;;;;;;5054313;28;20050;-71
2022/09/29 02:50:53;;;;;;;39.83;5.18;;;4.90;99.90;;;;;;5079843;28;20119;-70
2022/09/29 02:54:06;;;;;;;27.50;3.58;;;4.90;99.90;;;;;;5070575;28;20381;-70
2022/09/29 02:56:58;;;;;;;26.02;4.03;;;4.90;99.90;;;;;;5056179;28;20073;-70
2022/09/29 02:59:32;;;;;;;15.90;3.47;;;4.90;99.90;;;;;;5079263;28;20052;-70
2022/09/29 03:01:58;;;;;;;7.13;3.25;;;4.90;99.90;;;;;;5079277;28;20047;-70
2022/09/29 03:04:26;;;;;;;25.63;4.17;;;4.90;99.90;;;;;;5040725;28;20047;-70
2022/09/29 03:06:52;;;;;;;29.15;4.50;;;4.90;99.90;;;;;;5073308;28;20048;-70
2022/09/29 03:09:18;;;;;;;27.13;3.72;;;4.90;99.90;;;;;;5021641;28;20059;-70
2022/09/29 03:11:44;;;;;;;9.38;3.75;;;4.90;99.90;;;;;;5038233;28;20048;-70
2022/09/29 03:14:10;;;;;;;17.48;4.18;;;4.90;99.90;;;;;;5047518;28;20384;-70
2022/09/29 03:16:36;;;;;;;16.40;3.90;;;4.90;99.90;;;;;;5063116;28;20059;-70
2022/09/29 03:19:06;;;;;;;29.43;4.33;;;4.90;99.90;;;;;;5053756;28;20045;-69
2022/09/29 03:21:32;;;;;;;18.98;3.72;;;4.80;99.90;;;;;;5021987;28;20052;-70
2022/09/29 03:23:57;;;;;;;14.73;3.80;;;4.80;99.90;;;;;;5052045;28;20032;-70
2022/09/29 03:26:24;;;;;;;32.40;4.33;;;4.80;99.90;;;;;;5053881;28;20060;-70
2022/09/29 03:28:50;;;;;;;14.75;3.83;;;4.80;99.90;;;;;;5070449;28;20063;-70
2022/09/29 03:31:16;;;;;;;21.63;3.47;;;4.80;99.90;;;;;;5054730;28;20040;-70
2022/09/29 03:33:42;;;;;;;5.75;3.22;;;4.80;99.90;;;;;;5049347;28;20127;-70
2022/09/29 03:36:10;;;;;;;21.03;4.27;;;4.70;99.90;;;;;;5029489;28;20120;-70
2022/09/29 03:38:36;;;;;;;20.58;4.47;;;4.70;99.90;;;;;;5057633;28;20059;-70
2022/09/29 03:41:03;;;;;;;30.63;4.97;;;4.60;99.90;;;;;;5065953;28;20040;-70
2022/09/29 03:43:28;;;;;;;26.98;4.25;;;4.60;99.90;;;;;;5060204;28;20056;-70
2022/09/29 03:45:55;;;;;;;19.77;4.13;;;4.60;99.90;;;;;;5059055;28;20041;-70
2022/09/29 03:48:21;;;;;;;14.82;4.30;;;4.60;99.90;;;;;;5073614;28;20047;-70
2022/09/29 03:50:49;;;;;;;27.83;4.60;;;4.60;99.90;;;;;;5068483;28;20040;-70
2022/09/29 03:53:15;;;;;;;18.38;4.47;;;4.50;99.90;;;;;;5056876;28;20036;-70
2022/09/29 03:55:45;;;;;;;24.75;4.20;;;4.50;99.90;;;;;;5056750;28;20129;-70
2022/09/29 03:58:11;;;;;;;17.95;4.53;;;4.50;99.90;;;;;;5046006;28;20080;-70
2022/09/29 04:00:37;;;;;;;28.88;4.60;;;4.50;99.90;;;;;;5070128;28;20045;-70
2022/09/29 04:03:03;;;;;;;11.93;4.30;;;4.50;99.90;;;;;;5078639;28;20051;-70
2022/09/29 04:05:29;;;;;;;19.43;4.43;;;4.50;99.90;;;;;;5050129;28;20397;-70
2022/09/29 04:07:55;;;;;;;21.87;4.37;;;4.40;99.90;;;;;;5037709;28;20048;-70
2022/09/29 04:10:21;;;;;;;27.80;5.00;;;4.40;99.90;;;;;;5054697;28;20044;-70
2022/09/29 04:12:46;;;;;;;13.27;4.40;;;4.40;99.90;;;;;;5051406;28;20416;-70
2022/09/29 04:15:12;;;;;;;17.03;4.83;;;4.40;99.90;;;;;;5056052;28;20055;-70
2022/09/29 04:17:38;;;;;;;21.83;5.40;;;4.40;99.90;;;;;;5041689;28;20079;-70
2022/09/29 04:20:04;;;;;;;6.63;3.97;;;4.40;99.90;;;;;;5037304;28;20048;-70
2022/09/29 04:22:29;;;;;;;12.18;4.50;;;4.40;99.90;;;;;;5056638;28;20062;-70
2022/09/29 04:24:55;;;;;;;11.50;4.63;;;4.40;99.90;;;;;;5066987;28;20036;-70
2022/09/29 04:27:21;;;;;;;13.00;5.07;;;4.40;99.90;;;;;;5077173;28;20563;-70
2022/09/29 04:29:47;;;;;;;10.70;5.53;;;4.40;99.90;;;;;;5078016;28;20127;-70
2022/09/29 04:32:13;;;;;;;14.63;5.20;;;4.40;99.90;;;;;;5038473;28;20057;-70
2022/09/29 04:34:38;;;;;;;15.23;5.13;;;4.40;99.90;;;;;;5018594;28;20468;-70
2022/09/29 04:37:10;;;;;;;12.57;5.00;;;4.40;99.90;;;;;;5033736;28;20446;-70
2022/09/29 04:39:36;;;;;;;26.70;5.53;;;4.50;99.90;;;;;;5060154;28;20037;-70
2022/09/29 04:42:02;;;;;;;12.55;5.00;;;4.50;99.90;;;;;;5050566;28;20511;-70
2022/09/29 04:44:28;;;;;;;18.83;5.85;;;4.40;99.90;;;;;;5068349;28;20203;-70
2022/09/29 04:46:53;;;;;;;19.57;5.63;;;4.40;99.90;;;;;;5079153;28;20064;-70
2022/09/29 04:49:19;;;;;;;28.30;6.33;;;4.40;99.90;;;;;;5054734;28;20059;-70
2022/09/29 04:51:45;;;;;;;30.67;6.10;;;4.40;99.90;;;;;;5041751;28;20261;-70
2022/09/29 04:54:11;;;;;;;21.45;5.85;;;4.40;99.90;;;;;;5054820;28;20056;-70
2022/09/29 04:56:37;;;;;;;38.80;6.10;;;4.40;99.90;;;;;;5055981;28;20056;-70
2022/09/29 04:59:03;;;;;;;61.90;7.43;;;4.40;99.90;;;;;;5019058;28;20159;-70
2022/09/29 05:01:29;;;;;;;33.67;6.43;;;4.40;99.90;;;;;;5036951;28;20032;-70
2022/09/29 05:03:55;;;;;;;26.73;6.80;;;4.40;99.90;;;;;;5067390;28;20283;-70
2022/09/29 05:06:21;;;;;;;18.92;5.90;;;4.40;99.90;;;;;;5067688;28;20040;-70
2022/09/29 05:08:47;;;;;;;30.60;7.10;;;4.40;99.90;;;;;;5051691;28;20048;-70
2022/09/29 05:11:13;;;;;;;12.87;6.57;;;4.40;99.90;;;;;;5050141;28;20045;-70
2022/09/29 05:13:38;;;;;;;11.73;6.47;;;4.30;99.90;;;;;;5035689;28;20052;-70
2022/09/29 05:16:05;;;;;;;8.27;5.80;;;4.30;99.90;;;;;;5072034;28;20440;-70
2022/09/29 05:18:31;;;;;;;6.82;5.80;;;4.30;99.90;;;;;;5033589;28;20025;-70
2022/09/29 05:21:05;;;;;;;8.77;6.32;;;4.30;99.90;;;;;;5043608;28;20036;-70
2022/09/29 05:23:31;;;;;;;9.13;6.32;;;4.20;99.90;;;;;;5062941;28;20083;-70
2022/09/29 05:26:04;;;;;;;10.03;6.40;;;4.20;99.90;;;;;;5022026;28;20085;-70
2022/09/29 05:28:30;;;;;;;7.97;5.85;;;4.20;99.90;;;;;;5053599;28;20521;-70
2022/09/29 05:31:04;;;;;;;7.60;6.20;;;4.20;99.90;;;;;;5048908;28;20067;-70
2022/09/29 05:33:30;;;;;;;7.10;6.40;;;4.10;99.90;;;;;;5062928;28;20072;-70
2022/09/29 05:35:55;;;;;;;12.27;6.30;;;4.10;99.90;;;;;;5054770;28;20083;-70
2022/09/29 05:38:22;;;;;;;16.13;5.63;;;4.10;99.90;;;;;;5048875;28;20053;-70
2022/09/29 05:40:49;;;;;;;9.52;6.20;;;4.10;99.90;;;;;;5082360;28;20412;-70
2022/09/29 05:43:14;;;;;;;7.95;6.00;;;4.10;99.90;;;;;;5069797;28;20043;-70
2022/09/29 05:45:41;;;;;;;10.53;6.97;;;4.20;99.90;;;;;;5038282;28;20044;-70
2022/09/29 05:48:07;;;;;;;10.13;5.97;;;4.20;99.90;;;;;;5057031;28;20036;-70
2022/09/29 05:50:40;;;;;;;27.10;6.35;;;4.20;99.90;;;;;;5064182;28;20448;-70
2022/09/29 05:53:06;;;;;;;20.35;6.80;;;4.20;99.90;;;;;;5053790;28;20860;-70
2022/09/29 05:55:32;;;;;;;10.80;6.00;;;4.20;99.90;;;;;;5075901;28;20044;-70
2022/09/29 05:57:58;;;;;;;14.93;6.60;;;4.30;99.90;;;;;;5055336;28;20055;-70
2022/09/29 06:00:30;;;;;;;16.13;4.90;;;4.30;99.90;;;;;;5038390;28;20063;-70
2022/09/29 06:02:59;;;;;;;17.17;5.18;;;4.40;99.90;;;;;;5050810;28;20093;-70
2022/09/29 06:05:25;;;;;;;32.10;5.97;;;4.40;99.90;;;;;;5075800;28;20035;-70
2022/09/29 06:07:52;;;;;;;10.82;4.78;;;4.40;99.90;;;;;;5039608;28;20048;-70
2022/09/29 06:10:18;;;;;;;17.45;5.45;;;4.50;99.90;;;;;;5071638;28;20083;-70
2022/09/29 06:12:44;;;;;;;25.30;5.37;;;4.50;99.90;;;;;;5083873;28;20056;-70
2022/09/29 06:15:10;;;;;;;23.77;5.00;;;4.50;99.90;;;;;;5083538;28;20429;-70
2022/09/29 06:17:38;;;;;;;14.38;4.60;;;4.60;99.90;;;;;;5060371;28;20047;-71
2022/09/29 06:20:05;;;;;;;18.05;5.20;;;4.60;99.90;;;;;;5060744;28;20040;-71
2022/09/29 06:22:32;;;;;;;28.80;5.93;;;4.60;99.90;;;;;;5055201;28;20040;-71
2022/09/29 06:24:58;;;;;;;22.90;6.22;;;4.70;99.90;;;;;;5067952;28;20480;-71
2022/09/29 06:27:24;;;;;;;7.38;5.88;;;4.70;99.90;;;;;;5070704;28;20098;-71
2022/09/29 06:29:50;;;;;;;11.60;5.20;;;4.70;99.90;;;;;;5071350;28;20464;-71
2022/09/29 06:32:16;;;;;;;6.00;5.30;;;4.70;99.90;;;;;;5024726;28;20508;-71
2022/09/29 06:37:36;;;;;;;6.40;5.53;;;4.80;99.90;;;;;;5071681;28;20048;-71
2022/09/29 06:40:04;;;;;;;7.20;5.57;;;4.80;99.90;;;;;;5047444;28;20047;-71
2022/09/29 06:42:31;;;;;;;6.95;5.70;;;4.90;99.90;;;;;;5065542;28;20036;-70
2022/09/29 06:44:56;;;;;;;6.28;5.68;;;4.90;99.90;;;;;;5048327;28;20074;-71
2022/09/29 06:47:22;;;;;;;6.90;5.87;;;4.90;99.90;;;;;;5039090;28;20043;-70
2022/09/29 06:49:49;;;;;;;7.87;6.50;;;5.00;99.90;;;;;;5070052;28;20043;-70
2022/09/29 06:52:15;;;;;;;7.80;6.07;;;5.00;99.90;;;;;;5068202;28;20094;-70
2022/09/29 06:54:41;;;;;;;8.60;6.67;;;5.10;99.90;;;;;;5054151;28;20335;-70
2022/09/29 06:57:06;;;;;;;10.13;6.87;;;5.20;99.90;;;;;;5037679;28;20048;-70
2022/09/29 06:59:38;;;;;;;6.82;5.90;;;5.20;99.90;;;;;;5052391;28;20141;-70
2022/09/29 07:02:04;;;;;;;7.77;6.60;;;5.30;99.90;;;;;;5019156;28;20037;-70
2022/09/29 07:04:29;;;;;;;8.37;6.80;;;5.40;99.90;;;;;;5037171;28;20044;-70
2022/09/29 07:06:55;;;;;;;7.70;6.83;;;5.40;99.90;;;;;;5053682;28;20040;-71
2022/09/29 07:09:22;;;;;;;8.23;7.40;;;5.50;99.90;;;;;;5036031;28;20045;-71
2022/09/29 07:11:51;;;;;;;7.68;6.88;;;5.60;99.90;;;;;;5036418;28;20123;-71
2022/09/29 07:14:18;;;;;;;8.45;7.40;;;5.70;99.90;;;;;;5036876;28;20051;-71
2022/09/29 07:16:47;;;;;;;8.68;7.28;;;5.80;99.90;;;;;;5089169;28;20040;-71
2022/09/29 07:19:14;;;;;;;8.23;6.95;;;5.90;99.90;;;;;;5038331;28;20082;-71
2022/09/29 07:21:39;;;;;;;8.65;7.75;;;6.00;99.90;;;;;;5053357;28;20033;-71
2022/09/29 07:24:07;;;;;;;9.00;7.77;;;6.10;99.90;;;;;;5053790;28;20047;-71
2022/09/29 07:26:33;;;;;;;9.98;8.40;;;6.30;99.90;;;;;;5053549;28;20364;-71
2022/09/29 07:28:59;;;;;;;10.33;9.07;;;6.40;99.90;;;;;;5031555;28;20127;-71
2022/09/29 07:31:25;;;;;;;11.27;9.40;;;6.50;99.90;;;;;;5052691;28;20040;-71
2022/09/29 07:33:51;;;;;;;10.27;9.13;;;6.70;99.90;;;;;;5053264;28;20051;-71
2022/09/29 07:36:19;;;;;;;12.15;9.95;;;6.80;99.90;;;;;;5059451;28;20045;-71
2022/09/29 07:38:47;;;;;;;12.10;9.50;;;6.90;99.90;;;;;;5038764;28;20446;-71
2022/09/29 07:41:13;;;;;;;11.77;9.73;;;7.00;99.90;;;;;;5053090;28;20052;-71
2022/09/29 07:43:39;;;;;;;12.23;9.63;;;7.20;99.90;;;;;;5053253;28;20041;-71
2022/09/29 07:46:06;;;;;;;13.30;10.55;;;7.30;99.90;;;;;;5051021;28;20084;-71
2022/09/29 07:48:33;;;;;;;13.50;10.43;;;7.40;99.90;;;;;;5070606;28;20048;-71
2022/09/29 07:51:04;;;;;;;13.60;10.93;;;7.60;99.90;;;;;;5053249;28;20070;-71
2022/09/29 07:53:31;;;;;;;13.23;10.90;;;7.70;99.90;;;;;;5068293;28;20053;-71
2022/09/29 07:56:11;;;;;;;13.15;10.48;;;7.80;99.90;;;;;;5053763;28;20040;-70
2022/09/29 07:58:38;;;;;;;12.88;10.20;;;7.90;99.90;;;;;;5070060;28;20040;-71
2022/09/29 08:01:09;;;;;;;11.35;9.40;;;8.00;99.90;;;;;;5047474;28;20037;-71
2022/09/29 08:03:36;;;;;;;13.88;10.77;;;8.10;99.90;;;;;;5069956;28;20045;-71
2022/09/29 08:06:02;;;;;;;12.77;10.55;;;8.20;99.90;;;;;;5068299;28;20035;-71
2022/09/29 08:08:29;;;;;;;15.48;11.52;;;8.30;99.90;;;;;;5066237;28;20131;-71
2022/09/29 08:11:06;;;;;;;14.18;10.68;;;8.50;99.90;;;;;;5071598;28;20036;-71
2022/09/29 08:13:34;;;;;;;13.20;10.65;;;8.60;99.90;;;;;;5047884;28;20072;-71
2022/09/29 08:16:02;;;;;;;15.13;10.40;;;8.70;99.90;;;;;;5053105;28;20488;-69
2022/09/29 08:18:28;;;;;;;14.20;11.43;;;8.80;99.90;;;;;;5050630;28;20032;-72
2022/09/29 08:20:57;;;;;;;17.05;12.15;;;9.00;99.90;;;;;;5078371;28;20145;-72
2022/09/29 08:23:25;;;;;;;19.27;14.25;;;9.10;99.90;;;;;;5056673;28;20045;-70
2022/09/29 08:25:59;;;;;;;17.95;13.48;;;9.30;99.90;;;;;;5066489;28;20504;-70
2022/09/29 08:28:25;;;;;;;18.15;13.27;;;9.50;99.90;;;;;;5072496;28;20101;-70
2022/09/29 08:30:51;;;;;;;19.07;13.57;;;9.60;99.90;;;;;;5056724;28;20435;-70
2022/09/29 08:33:18;;;;;;;16.80;12.40;;;9.80;99.90;;;;;;5025259;28;20051;-70
2022/09/29 08:35:43;;;;;;;18.73;13.45;;;10.00;99.90;;;;;;5052147;28;20091;-70
2022/09/29 08:38:09;;;;;;;17.07;12.90;;;10.20;99.90;;;;;;5058790;28;20083;-70
2022/09/29 08:40:41;;;;;;;16.08;11.63;;;10.30;99.90;;;;;;5070694;28;20051;-70
2022/09/29 08:43:25;;;;;;;18.57;13.27;;;10.50;99.90;;;;;;5029761;28;20497;-70
2022/09/29 08:46:32;;;;;;;17.40;12.52;;;10.70;99.90;;;;;;5074651;28;20071;-71
2022/09/29 08:49:25;;;;;;;15.73;11.85;;;10.80;99.90;;;;;;5047610;28;20119;-71
2022/09/29 08:51:55;;;;;;;17.67;11.55;;;11.00;99.90;;;;;;5074305;28;20041;-71
2022/09/29 08:54:30;;;;;;;16.63;11.20;;;11.20;99.90;;;;;;5066407;28;20033;-71
2022/09/29 08:56:58;;;;;;;17.30;12.43;;;11.30;99.90;;;;;;5042667;28;20807;-71
2022/09/29 08:59:26;;;;;;;16.67;11.30;;;11.40;99.90;;;;;;5020270;28;20340;-71
2022/09/29 09:02:01;;;;;;;14.40;11.23;;;11.50;99.90;;;;;;5062110;28;20301;-70
2022/09/29 09:04:59;;;;;;;13.75;10.10;;;11.70;99.90;;;;;;5086539;28;20279;-71
2022/09/29 09:08:05;;;;;;;16.20;10.50;;;11.80;99.90;;;;;;5039668;28;20047;-71
2022/09/29 09:10:56;;;;;;;12.73;9.57;;;12.00;99.90;;;;;;5017750;28;20279;-72
2022/09/29 09:13:50;;;;;;;12.07;9.17;;;12.10;99.90;;;;;;5057551;28;20282;-72
2022/09/29 09:16:32;;;;;;;11.83;8.83;;;12.10;99.90;;;;;;5086108;28;20322;-72
2022/09/29 09:19:29;;;;;;;12.27;8.47;;;12.20;99.90;;;;;;5073540;28;20279;-71
2022/09/29 09:22:17;;;;;;;13.77;9.17;;;12.30;99.90;;;;;;5050605;28;20365;-71
2022/09/29 09:24:55;;;;;;;10.93;8.30;;;12.40;99.90;;;;;;5056200;28;20792;-71
2022/09/29 09:27:32;;;;;;;14.03;9.67;;;12.50;99.90;;;;;;5053415;28;20291;-72
2022/09/29 09:30:14;;;;;;;11.07;8.37;;;12.70;99.90;;;;;;5065817;28;20290;-71
2022/09/29 09:32:53;;;;;;;8.77;5.97;;;12.70;98.70;;;;;;5074286;28;20294;-72
2022/09/29 09:35:29;;;;;;;9.57;6.80;;;12.70;97.70;;;;;;5048668;28;20302;-72
2022/09/29 09:38:01;;;;;;;9.20;7.13;;;12.70;97.70;;;;;;5066022;28;20298;-72
2022/09/29 09:40:35;;;;;;;8.47;6.90;;;12.80;98.50;;;;;;5073331;28;20594;-71
2022/09/29 09:43:10;;;;;;;8.67;6.20;;;12.80;98.20;;;;;;5057435;28;20313;-71
2022/09/29 09:45:52;;;;;;;7.85;6.38;;;12.80;97.80;;;;;;5055834;28;20285;-71
2022/09/29 09:48:34;;;;;;;8.17;5.97;;;12.80;96.30;;;;;;5055308;28;20040;-71
2022/09/29 09:51:28;;;;;;;6.70;5.50;;;12.90;97.00;;;;;;5069243;28;20370;-72
2022/09/29 09:53:57;;;;;;;8.27;5.90;;;13.10;96.60;;;;;;5075899;28;20906;-72
2022/09/29 09:56:53;;;;;;;9.38;7.03;;;13.20;95.20;;;;;;5064549;28;20310;-72
2022/09/29 09:59:42;;;;;;;8.10;5.93;;;13.30;94.40;;;;;;5068295;28;20119;-72
2022/09/29 10:02:20;;;;;;;9.50;5.20;;;13.40;92.90;;;;;;5071979;28;20691;-72
2022/09/29 10:04:54;;;;;;;7.10;4.10;;;13.40;90.70;;;;;;5074423;28;20361;-72
2022/09/29 10:07:23;;;;;;;5.87;4.37;;;13.50;89.90;;;;;;5033724;28;20282;-72
2022/09/29 10:09:49;;;;;;;6.13;4.80;;;13.50;88.60;;;;;;5053709;28;20279;-71
2022/09/29 10:12:20;;;;;;;5.27;3.90;;;13.60;90.10;;;;;;5049995;28;20711;-71
2022/09/29 10:15:11;;;;;;;3.90;3.00;;;13.70;89.00;;;;;;5053226;28;20780;-71
2022/09/29 10:17:42;;;;;;;6.47;3.97;;;13.80;85.20;;;;;;5062370;28;20766;-72
2022/09/29 10:20:08;;;;;;;4.47;3.17;;;13.80;84.00;;;;;;5048748;28;20295;-71
2022/09/29 10:22:35;;;;;;;4.60;3.03;;;13.80;80.90;;;;;;5055053;28;20344;-71
2022/09/29 10:25:17;;;;;;;4.97;3.10;;;13.80;81.30;;;;;;5054965;28;20304;-71
2022/09/29 10:27:47;;;;;;;4.87;3.17;;;13.90;83.50;;;;;;5056554;28;20294;-71
2022/09/29 10:30:34;;;;;;;6.70;3.13;;;14.10;84.10;;;;;;5053902;28;20279;-71
2022/09/29 10:33:04;;;;;;;3.63;2.80;;;14.20;83.70;;;;;;5054929;28;20291;-71
2022/09/29 10:35:38;;;;;;;4.50;1.90;;;14.40;83.10;;;;;;5063999;28;20283;-71
2022/09/29 10:38:22;;;;;;;4.17;2.70;;;14.50;78.30;;;;;;5053991;28;20346;-71
2022/09/29 10:41:03;;;;;;;6.87;3.20;;;14.50;78.70;;;;;;5063670;28;20309;-71
2022/09/29 10:43:48;;;;;;;4.30;2.70;;;14.70;78.40;;;;;;5051561;28;20277;-72
2022/09/29 10:46:51;;;;;;;4.53;2.45;;;14.70;78.70;;;;;;5052791;28;20306;-71
2022/09/29 10:49:19;;;;;;;3.93;2.90;;;14.90;79.30;;;;;;5049105;28;20079;-71
2022/09/29 10:52:05;;;;;;;4.37;2.50;;;15.10;79.60;;;;;;5048480;28;20314;-71
2022/09/29 10:54:35;;;;;;;3.53;2.10;;;15.30;78.80;;;;;;5054786;28;20280;-71
2022/09/29 10:57:14;;;;;;;4.47;2.40;;;15.50;79.90;;;;;;5066824;28;20295;-71
2022/09/29 10:59:49;;;;;;;3.20;1.80;;;15.70;77.50;;;;;;5051732;28;20657;-71
2022/09/29 11:02:28;;;;;;;1.95;1.40;;;15.80;76.60;;;;;;5064999;28;20275;-71
2022/09/29 11:04:58;;;;;;;2.57;1.80;;;15.90;76.00;;;;;;5060658;28;20048;-71
2022/09/29 11:07:24;;;;;;;3.20;1.97;;;16.20;76.20;;;;;;5060811;28;20282;-71
2022/09/29 11:09:53;;;;;;;4.63;1.43;;;16.40;74.70;;;;;;5071277;28;20331;-72
2022/09/29 11:12:39;;;;;;;2.60;1.60;;;16.60;74.70;;;;;;5037666;28;20345;-72
2022/09/29 11:15:24;;;;;;;4.67;1.80;;;16.90;73.60;;;;;;5033523;28;20344;-72
2022/09/29 11:17:51;;;;;;;2.38;2.13;;;16.90;72.60;;;;;;5070389;28;20309;-72
2022/09/29 11:20:17;;;;;;;2.97;2.20;;;17.00;73.50;;;;;;5054857;28;20033;-72
2022/09/29 11:22:49;;;;;;;3.87;1.60;;;17.00;71.60;;;;;;5071173;28;20283;-72
2022/09/29 11:25:29;;;;;;;1.67;0.90;;;17.10;69.20;;;;;;5072873;28;20564;-71
2022/09/29 11:28:00;;;;;;;1.97;1.03;;;17.10;68.20;;;;;;5081092;28;20317;-72
2022/09/29 11:30:41;;;;;;;3.23;1.27;;;16.80;66.40;;;;;;5092928;28;20318;-71
2022/09/29 11:33:32;;;;;;;2.57;1.20;;;16.50;67.70;;;;;;5061687;28;20639;-72
2022/09/29 11:36:24;;;;;;;2.97;1.20;;;16.00;68.30;;;;;;5049553;28;20291;-72
2022/09/29 11:39:09;;;;;;;1.97;1.10;;;15.70;70.80;;;;;;5058411;28;20350;-71
2022/09/29 11:41:52;;;;;;;2.07;0.87;;;15.60;71.00;;;;;;5075062;28;20821;-73
2022/09/29 11:44:36;;;;;;;0.90;0.57;;;15.50;71.90;;;;;;5054501;28;20283;-72
2022/09/29 11:47:23;;;;;;;2.33;0.60;;;15.30;71.90;;;;;;5067550;28;20688;-72
2022/09/29 11:50:01;;;;;;;0.93;0.50;;;15.30;71.30;;;;;;5057121;28;20289;-72
2022/09/29 11:53:00;;;;;;;1.20;0.60;;;15.20;71.00;;;;;;5063487;28;20288;-72
2022/09/29 11:55:37;;;;;;;1.20;0.30;;;15.20;70.90;;;;;;5064088;28;20286;-72
2022/09/29 11:58:26;;;;;;;1.50;0.50;;;15.20;70.30;;;;;;5073129;28;20295;-71
2022/09/29 12:01:04;;;;;;;2.13;0.90;;;15.20;71.40;;;;;;5069344;28;20295;-72
2022/09/29 12:03:36;;;;;;;1.90;0.80;;;15.50;70.70;;;;;;5074924;28;20285;-72
2022/09/29 12:06:19;;;;;;;3.10;0.50;;;15.90;69.90;;;;;;5068433;28;20284;-72
2022/09/29 12:09:02;;;;;;;2.17;0.93;;;16.30;67.50;;;;;;5074997;28;20436;-71
2022/09/29 12:11:44;;;;;;;3.27;1.33;;;16.60;66.70;;;;;;5073943;28;20283;-72
2022/09/29 12:14:42;;;;;;;2.77;1.00;;;16.80;68.00;;;;;;5069282;28;20274;-72
2022/09/29 12:17:13;;;;;;;1.97;1.33;;;17.00;66.90;;;;;;5067358;28;20359;-71
2022/09/29 12:19:42;;;;;;;2.60;1.17;;;17.00;67.50;;;;;;5051366;28;20285;-71
2022/09/29 12:22:10;;;;;;;3.27;1.43;;;16.90;67.30;;;;;;5076934;28;20335;-71
2022/09/29 12:24:40;;;;;;;3.40;1.27;;;16.80;66.00;;;;;;5057099;28;20310;-72
2022/09/29 12:27:21;;;;;;;1.97;0.70;;;16.80;66.50;;;;;;5077592;28;20286;-71
2022/09/29 12:30:01;;;;;;;3.03;0.80;;;16.80;65.70;;;;;;5067722;28;20298;-71
2022/09/29 12:32:35;;;;;;;2.47;0.80;;;16.70;66.40;;;;;;5070764;28;20698;-72
2022/09/29 12:35:14;;;;;;;1.60;0.73;;;16.60;68.10;;;;;;5077115;28;20279;-71
2022/09/29 12:37:48;;;;;;;4.63;0.97;;;16.50;67.60;;;;;;5057220;28;20303;-71
2022/09/29 12:40:32;;;;;;;1.92;0.60;;;16.30;65.80;;;;;;5057965;28;20279;-71
2022/09/29 12:43:10;;;;;;;1.23;0.40;;;16.10;66.70;;;;;;5073690;28;20044;-72
2022/09/29 12:45:35;;;;;;;1.50;0.70;;;15.90;66.90;;;;;;5056899;28;20290;-71
2022/09/29 12:48:39;;;;;;;1.60;0.50;;;15.70;67.30;;;;;;5057178;28;20282;-71
2022/09/29 12:51:15;;;;;;;1.43;0.80;;;15.60;66.30;;;;;;4966281;28;20047;-72
2022/09/29 12:54:10;;;;;;;1.40;0.53;;;15.50;68.20;;;;;;5045902;28;20652;-72
2022/09/29 12:57:00;;;;;;;1.50;0.83;;;15.40;67.80;;;;;;5047057;28;20805;-71
2022/09/29 13:00:03;;;;;;;1.00;0.50;;;15.40;68.80;;;;;;5073564;28;20282;-72
2022/09/29 13:03:19;;;;;;;1.40;0.47;;;15.40;68.70;;;;;;5058086;28;20365;-71
2022/09/29 13:06:00;;;;;;;1.50;0.75;;;15.40;69.00;;;;;;5039977;28;20301;-71
2022/09/29 13:08:55;;;;;;;2.17;0.60;;;15.30;68.40;;;;;;5061429;28;20107;-71
2022/09/29 13:11:33;;;;;;;0.90;0.63;;;15.20;68.70;;;;;;5049393;28;20287;-72
2022/09/29 13:14:37;;;;;;;3.00;0.83;;;15.10;69.10;;;;;;5070563;28;20381;-71
2022/09/29 13:17:18;;;;;;;2.37;0.73;;;15.10;69.30;;;;;;5045454;28;20318;-71
2022/09/29 13:20:01;;;;;;;2.53;1.17;;;15.10;70.70;;;;;;5072992;28;20283;-72
2022/09/29 13:22:59;;;;;;;3.40;0.83;;;15.10;71.20;;;;;;5069616;28;20279;-72
2022/09/29 13:25:40;;;;;;;4.30;1.30;;;15.20;71.10;;;;;;5056016;28;20293;-72